Terminal Aerodrome Forecast
Issued by NWS Albuquerque, NM

Home | Current Version | Previous Version | Text Only | Print | Product List | Glossary On
Versions: 1 2 3 4 5 6 7 8 9 10 11 12 13 14 15 16 17
000
FTUS45 KABQ 160300 AAA
TAFABQ
TAF AMD
KABQ 160355Z 1604/1624 19012G20KT P6SM BKN250
     FM160600 21008KT P6SM BKN250
     FM161600 24007KT P6SM SCT150 BKN250
     FM162000 30015KT P6SM BKN150 BKN250=

USA.gov is the U.S. government's official web portal to all federal, state and local government web resources and services.